createdAt,value
2018-12-04T00:01:34.704Z,3.50
2018-12-04T00:06:38.671Z,2.90
2018-12-04T00:11:41.744Z,3.20
2018-12-04T00:16:44.837Z,3.40
2018-12-04T00:21:47.993Z,4.17
2018-12-04T00:26:51.114Z,4.17
2018-12-04T00:31:54.230Z,3.80
2018-12-04T00:36:57.321Z,3.77
2018-12-04T00:42:00.418Z,3.70
2018-12-04T00:47:03.653Z,4.47
2018-12-04T00:52:06.749Z,4.00
2018-12-04T00:57:09.828Z,4.37
2018-12-04T01:02:12.988Z,4.47
2018-12-04T01:07:16.081Z,4.53
2018-12-04T01:12:19.163Z,4.83
2018-12-04T01:17:22.252Z,5.60
2018-12-04T01:22:25.457Z,4.67
2018-12-04T01:27:28.600Z,4.30
2018-12-04T01:32:31.728Z,2.90
2018-12-04T01:37:34.817Z,3.50
2018-12-04T01:42:37.951Z,3.10
2018-12-04T01:47:41.065Z,2.53
2018-12-04T01:52:44.149Z,2.23
2018-12-04T01:57:47.225Z,1.70
2018-12-04T02:02:50.344Z,2.37
2018-12-04T02:07:53.456Z,1.57
2018-12-04T02:12:56.581Z,1.97
2018-12-04T02:17:59.702Z,1.40
2018-12-04T02:23:02.785Z,1.83
2018-12-04T02:28:06.476Z,1.53
2018-12-04T02:33:09.664Z,1.87
2018-12-04T02:38:12.809Z,2.00
2018-12-04T02:43:15.990Z,2.00
2018-12-04T02:48:19.082Z,1.63
2018-12-04T02:53:22.199Z,1.70
2018-12-04T02:58:25.288Z,2.07
2018-12-04T03:03:28.368Z,1.97
2018-12-04T03:08:32.244Z,1.98
2018-12-04T03:13:35.324Z,1.73
2018-12-04T03:18:38.412Z,2.10
2018-12-04T03:23:41.492Z,1.80
2018-12-04T03:28:44.580Z,1.90
2018-12-04T03:33:47.662Z,1.80
2018-12-04T03:38:51.307Z,1.93
2018-12-04T03:43:54.420Z,2.27
2018-12-04T03:48:57.506Z,2.73
2018-12-04T03:54:00.610Z,2.50
2018-12-04T03:59:03.796Z,2.43
2018-12-04T04:04:07.001Z,2.43
2018-12-04T04:09:10.086Z,2.40
2018-12-04T04:14:13.227Z,2.47
2018-12-04T04:19:16.324Z,2.83
2018-12-04T04:24:19.393Z,3.30
2018-12-04T04:29:22.483Z,4.10
2018-12-04T04:34:25.571Z,4.30
2018-12-04T04:39:28.744Z,4.73
2018-12-04T04:44:31.824Z,5.00
2018-12-04T04:49:34.909Z,4.67
2018-12-04T04:54:37.993Z,4.63
2018-12-04T04:59:41.067Z,4.60
2018-12-04T05:04:44.203Z,4.90
2018-12-04T05:09:47.316Z,5.10
2018-12-04T05:14:50.405Z,4.37
2018-12-04T05:19:53.475Z,4.58
2018-12-04T05:24:56.569Z,4.62
2018-12-04T05:29:59.692Z,5.30
2018-12-04T05:35:02.888Z,5.90
2018-12-04T05:40:06.767Z,5.37
2018-12-04T05:45:09.869Z,5.00
2018-12-04T05:50:12.996Z,6.00
2018-12-04T05:55:16.114Z,5.83
2018-12-04T06:00:19.225Z,5.80
2018-12-04T06:05:22.307Z,5.73
2018-12-04T06:10:25.386Z,5.30
2018-12-04T06:15:28.468Z,5.05
2018-12-04T06:20:31.645Z,4.80
2018-12-04T06:25:34.744Z,4.53
2018-12-04T06:30:37.831Z,3.50
2018-12-04T06:35:40.943Z,3.37
2018-12-04T06:40:44.167Z,2.93
2018-12-04T06:45:47.309Z,3.00
2018-12-04T06:50:50.384Z,2.67
2018-12-04T06:55:53.480Z,2.93
2018-12-04T07:00:56.603Z,2.67
2018-12-04T07:05:59.709Z,2.80
2018-12-04T07:11:02.788Z,3.40
2018-12-04T07:16:05.932Z,3.70
2018-12-04T07:21:09.037Z,5.27
2018-12-04T07:26:12.183Z,6.60
2018-12-04T07:31:15.264Z,7.43
2018-12-04T07:36:18.374Z,7.10
2018-12-04T07:41:21.542Z,7.58
2018-12-04T07:46:24.610Z,6.37
2018-12-04T07:51:27.722Z,6.03
2018-12-04T07:56:30.805Z,5.47
2018-12-04T08:01:33.925Z,5.10
2018-12-04T08:06:37.011Z,3.87
2018-12-04T08:11:41.033Z,3.20
2018-12-04T08:16:44.146Z,2.93
2018-12-04T08:21:47.224Z,2.33
2018-12-04T08:26:50.352Z,2.47
2018-12-04T08:31:53.450Z,2.67
2018-12-04T08:36:56.529Z,2.00
2018-12-04T08:41:59.637Z,2.43
2018-12-04T08:47:02.721Z,2.67
2018-12-04T08:52:06.806Z,1.98
2018-12-04T08:57:09.922Z,2.50
2018-12-04T09:02:13.032Z,2.60
2018-12-04T09:07:16.131Z,3.03
2018-12-04T09:12:19.224Z,3.57
2018-12-04T09:17:22.303Z,7.43
2018-12-04T09:22:25.454Z,7.33
2018-12-04T09:27:28.638Z,7.07
2018-12-04T09:32:31.761Z,6.13
2018-12-04T09:37:34.840Z,5.53
2018-12-04T09:42:37.954Z,5.20
2018-12-04T09:47:41.087Z,5.10
2018-12-04T09:52:44.237Z,4.30
2018-12-04T09:57:47.325Z,4.03
2018-12-04T10:02:50.419Z,4.13
2018-12-04T10:07:53.493Z,3.20
2018-12-04T10:12:56.677Z,3.50
2018-12-04T10:17:59.978Z,3.33
2018-12-04T10:23:03.178Z,3.07
2018-12-04T10:28:06.635Z,3.60
2018-12-04T10:33:09.715Z,3.00
2018-12-04T10:38:12.821Z,2.80
2018-12-04T10:43:16.018Z,3.47
2018-12-04T10:48:19.127Z,3.87
2018-12-04T10:53:22.208Z,3.80
2018-12-04T10:58:25.325Z,4.00
2018-12-04T11:03:34.052Z,4.03
2018-12-04T11:08:37.158Z,3.80
2018-12-04T11:13:40.243Z,3.83
2018-12-04T11:18:43.360Z,3.70
2018-12-04T11:23:46.465Z,3.70
2018-12-04T11:28:49.550Z,3.70
2018-12-04T11:33:52.648Z,3.40
2018-12-04T11:38:55.735Z,3.90
2018-12-04T11:43:58.850Z,3.43
2018-12-04T11:49:01.977Z,3.30
2018-12-04T11:54:05.133Z,3.57
2018-12-04T11:59:08.305Z,2.70
2018-12-04T12:04:11.391Z,4.07
2018-12-04T12:09:14.608Z,2.93
2018-12-04T12:14:17.692Z,2.93
2018-12-04T12:19:20.890Z,2.80
2018-12-04T12:24:24.046Z,2.60
2018-12-04T12:29:27.152Z,2.70
2018-12-04T12:34:30.224Z,2.60
2018-12-04T12:39:33.580Z,2.83
2018-12-04T12:44:36.697Z,2.87
2018-12-04T12:49:39.829Z,3.20
2018-12-04T12:54:42.911Z,2.53
2018-12-04T12:59:46.036Z,3.10
2018-12-04T13:04:49.132Z,2.80
2018-12-04T13:09:52.393Z,3.20
2018-12-04T13:14:55.565Z,3.50
2018-12-04T13:19:58.751Z,2.60
2018-12-04T13:25:01.892Z,2.90
2018-12-04T13:30:06.551Z,2.67
2018-12-04T13:35:09.699Z,2.70
2018-12-04T13:40:12.913Z,3.10
2018-12-04T13:45:16.009Z,2.70
2018-12-04T13:50:19.088Z,3.33
2018-12-04T13:55:22.260Z,2.83
2018-12-04T14:00:25.374Z,2.97
2018-12-04T14:05:28.482Z,2.70
2018-12-04T14:10:31.567Z,3.57
2018-12-04T14:20:44.137Z,2.70
2018-12-04T14:25:47.345Z,3.00
2018-12-04T14:30:50.527Z,3.43
2018-12-04T14:35:53.765Z,2.77
2018-12-04T14:40:56.941Z,3.10
2018-12-04T14:46:00.143Z,3.50
2018-12-04T14:51:03.346Z,3.20
2018-12-04T14:56:06.592Z,2.90
2018-12-04T15:01:09.871Z,3.33
2018-12-04T15:06:13.061Z,2.90
2018-12-04T15:11:16.328Z,3.40
2018-12-04T15:16:19.549Z,3.60
2018-12-04T15:21:22.735Z,3.70
2018-12-04T15:26:25.898Z,3.53
2018-12-04T15:31:29.069Z,3.47
2018-12-04T15:36:32.157Z,3.83
2018-12-04T15:41:35.416Z,3.87
2018-12-04T15:46:38.670Z,3.80
2018-12-04T15:51:41.838Z,3.90
2018-12-04T15:56:44.952Z,3.70
2018-12-04T16:01:48.056Z,3.30
2018-12-04T16:06:51.137Z,3.87
2018-12-04T16:11:54.239Z,3.80
2018-12-04T16:16:57.325Z,4.57
2018-12-04T16:22:00.406Z,4.80
2018-12-04T16:27:03.555Z,5.23
2018-12-04T16:32:06.689Z,5.13
2018-12-04T16:37:09.804Z,5.13
2018-12-04T16:42:12.898Z,5.33
2018-12-04T16:47:16.225Z,4.87
2018-12-04T16:52:19.380Z,6.13
2018-12-04T16:57:22.477Z,7.63
2018-12-04T17:02:25.580Z,8.57
2018-12-04T17:07:28.751Z,7.93
2018-12-04T17:12:31.861Z,7.63
2018-12-04T17:17:34.952Z,9.43
2018-12-04T17:22:38.041Z,9.47
2018-12-04T17:27:41.118Z,7.77
2018-12-04T17:32:44.626Z,7.63
2018-12-04T17:37:47.715Z,6.80
2018-12-04T17:42:50.852Z,6.47
2018-12-04T17:47:53.955Z,6.00
2018-12-04T17:52:57.097Z,6.30
2018-12-04T17:58:00.253Z,6.03
2018-12-04T18:03:03.366Z,5.63
2018-12-04T18:08:06.462Z,5.27
2018-12-04T18:13:09.567Z,7.00
2018-12-04T18:18:12.689Z,6.93
2018-12-04T18:23:15.808Z,6.90
2018-12-04T18:28:18.916Z,6.93
2018-12-04T18:33:22.028Z,7.03
2018-12-04T18:38:25.904Z,7.17
2018-12-04T18:43:29.004Z,9.10
2018-12-04T18:48:32.968Z,9.20
2018-12-04T18:53:36.689Z,9.13
2018-12-04T18:58:40.693Z,8.43
2018-12-04T19:03:43.807Z,7.93
2018-12-04T19:08:47.261Z,9.83
2018-12-04T19:13:50.363Z,9.33
2018-12-04T19:18:53.518Z,9.67
2018-12-04T19:23:56.655Z,9.43
2018-12-04T19:29:00.041Z,14.27
2018-12-04T19:34:04.219Z,16.33
2018-12-04T19:39:07.639Z,37.73
2018-12-04T19:44:10.752Z,18.90
2018-12-04T19:49:13.898Z,12.93
2018-12-04T19:54:17.004Z,12.37
2018-12-04T19:59:20.109Z,12.00
2018-12-04T20:04:23.236Z,11.07
2018-12-04T20:09:27.552Z,11.03
2018-12-04T20:14:30.658Z,10.30
2018-12-04T20:19:33.789Z,10.00
2018-12-04T20:24:36.904Z,10.60
2018-12-04T20:29:40.002Z,10.47
2018-12-04T20:34:43.128Z,11.20
2018-12-04T20:39:46.217Z,9.87
2018-12-04T20:44:49.304Z,10.23
2018-12-04T20:49:52.423Z,10.30
2018-12-04T20:54:55.523Z,11.07
2018-12-04T20:59:58.617Z,9.60
2018-12-04T21:05:01.716Z,11.70
2018-12-04T21:10:05.348Z,10.82
2018-12-04T21:15:08.464Z,10.50
2018-12-04T21:20:11.592Z,9.67
2018-12-04T21:25:14.704Z,11.97
2018-12-04T21:30:23.541Z,11.83
2018-12-04T21:35:32.350Z,12.20
2018-12-04T21:40:41.067Z,12.67
2018-12-04T21:45:49.721Z,11.57
2018-12-04T21:50:52.925Z,11.93
2018-12-04T21:55:56.040Z,11.80
2018-12-04T22:00:59.155Z,11.03
2018-12-04T22:06:02.383Z,12.00
2018-12-04T22:11:05.592Z,11.80
2018-12-04T22:16:08.723Z,11.73
2018-12-04T22:21:11.940Z,12.47
2018-12-04T22:26:15.085Z,12.40
2018-12-04T22:31:18.197Z,12.10
2018-12-04T22:36:21.292Z,11.48
2018-12-04T22:41:24.422Z,12.40
2018-12-04T22:46:27.533Z,11.33
2018-12-04T22:51:30.629Z,11.93
2018-12-04T22:56:33.727Z,12.63
2018-12-04T23:01:38.595Z,11.97
2018-12-04T23:06:41.745Z,11.40
2018-12-04T23:11:45.660Z,11.40
2018-12-04T23:16:48.793Z,11.60
2018-12-04T23:21:52.628Z,11.60
2018-12-04T23:26:55.729Z,10.87
2018-12-04T23:31:58.834Z,11.80
2018-12-04T23:37:01.924Z,11.50
2018-12-04T23:42:05.085Z,10.90
2018-12-04T23:47:08.161Z,11.97
2018-12-04T23:52:11.240Z,11.20
2018-12-04T23:57:14.359Z,11.22
